sensor_id;sensor_type;location;lat;lon;timestamp;pressure;altitude;pressure_sealevel;temperature;humidity
41334;BME280;27078;46.428;6.256;2023-11-19T00:01:07;97061.81;;;6.31;70.04
41334;BME280;27078;46.428;6.256;2023-11-19T00:03:33;97059.28;;;6.24;69.70
41334;BME280;27078;46.428;6.256;2023-11-19T00:05:58;97055.13;;;6.17;69.65
41334;BME280;27078;46.428;6.256;2023-11-19T00:08:24;97057.03;;;6.16;68.46
41334;BME280;27078;46.428;6.256;2023-11-19T00:10:50;97060.63;;;6.17;68.39
41334;BME280;27078;46.428;6.256;2023-11-19T00:13:16;97059.00;;;6.21;68.77
41334;BME280;27078;46.428;6.256;2023-11-19T00:15:41;97054.63;;;6.25;68.74
41334;BME280;27078;46.428;6.256;2023-11-19T00:18:07;97050.78;;;6.31;68.58
41334;BME280;27078;46.428;6.256;2023-11-19T00:20:32;97041.97;;;6.34;68.20
41334;BME280;27078;46.428;6.256;2023-11-19T00:22:57;97034.28;;;6.41;69.99
41334;BME280;27078;46.428;6.256;2023-11-19T00:25:23;97025.47;;;6.39;68.83
41334;BME280;27078;46.428;6.256;2023-11-19T00:27:49;97016.66;;;6.42;68.33
41334;BME280;27078;46.428;6.256;2023-11-19T00:30:15;97020.81;;;6.45;67.50
41334;BME280;27078;46.428;6.256;2023-11-19T00:32:42;97024.16;;;6.57;67.01
41334;BME280;27078;46.428;6.256;2023-11-19T00:35:07;97012.91;;;6.69;66.54
41334;BME280;27078;46.428;6.256;2023-11-19T00:37:33;97009.66;;;6.82;66.02
41334;BME280;27078;46.428;6.256;2023-11-19T00:39:59;97004.16;;;6.92;66.67
41334;BME280;27078;46.428;6.256;2023-11-19T00:42:24;96996.69;;;6.98;67.18
41334;BME280;27078;46.428;6.256;2023-11-19T00:44:50;97003.91;;;6.99;68.54
41334;BME280;27078;46.428;6.256;2023-11-19T00:47:16;96995.63;;;7.04;67.55
41334;BME280;27078;46.428;6.256;2023-11-19T00:49:41;97000.88;;;7.05;67.22
41334;BME280;27078;46.428;6.256;2023-11-19T00:52:08;96999.22;;;7.09;67.89
41334;BME280;27078;46.428;6.256;2023-11-19T00:54:33;96998.38;;;6.99;68.98
41334;BME280;27078;46.428;6.256;2023-11-19T00:56:58;97003.03;;;6.98;67.68
41334;BME280;27078;46.428;6.256;2023-11-19T00:59:24;96996.69;;;6.98;67.97
41334;BME280;27078;46.428;6.256;2023-11-19T01:01:49;96992.59;;;7.05;67.86
41334;BME280;27078;46.428;6.256;2023-11-19T01:04:16;97003.38;;;7.22;66.41
41334;BME280;27078;46.428;6.256;2023-11-19T01:06:41;97000.38;;;7.49;64.13
41334;BME280;27078;46.428;6.256;2023-11-19T01:09:07;97000.63;;;7.73;62.94
41334;BME280;27078;46.428;6.256;2023-11-19T01:11:34;97002.84;;;7.87;63.83
41334;BME280;27078;46.428;6.256;2023-11-19T01:13:59;97011.09;;;8.02;63.28
41334;BME280;27078;46.428;6.256;2023-11-19T01:16:26;97003.03;;;8.16;62.73
41334;BME280;27078;46.428;6.256;2023-11-19T01:18:51;97003.28;;;8.19;61.93
41334;BME280;27078;46.428;6.256;2023-11-19T01:21:17;97006.06;;;8.19;62.32
41334;BME280;27078;46.428;6.256;2023-11-19T01:23:43;97001.38;;;8.10;63.76
41334;BME280;27078;46.428;6.256;2023-11-19T01:26:09;96988.16;;;7.91;65.88
41334;BME280;27078;46.428;6.256;2023-11-19T01:28:36;96984.59;;;7.80;65.63
41334;BME280;27078;46.428;6.256;2023-11-19T01:31:01;96982.66;;;7.66;66.47
41334;BME280;27078;46.428;6.256;2023-11-19T01:33:26;96980.16;;;7.59;67.93
41334;BME280;27078;46.428;6.256;2023-11-19T01:35:53;96981.56;;;7.51;67.74
41334;BME280;27078;46.428;6.256;2023-11-19T01:38:18;96975.19;;;7.46;66.02
41334;BME280;27078;46.428;6.256;2023-11-19T01:40:43;96980.47;;;7.37;68.11
41334;BME280;27078;46.428;6.256;2023-11-19T01:43:09;96984.31;;;7.41;66.63
41334;BME280;27078;46.428;6.256;2023-11-19T01:45:37;96985.44;;;7.45;66.88
41334;BME280;27078;46.428;6.256;2023-11-19T01:48:03;96986.00;;;7.37;68.77
41334;BME280;27078;46.428;6.256;2023-11-19T01:50:30;96989.59;;;7.32;69.33
41334;BME280;27078;46.428;6.256;2023-11-19T01:52:56;96986.81;;;7.27;70.83
41334;BME280;27078;46.428;6.256;2023-11-19T01:55:27;96988.72;;;7.22;69.78
41334;BME280;27078;46.428;6.256;2023-11-19T01:57:57;96990.38;;;7.18;70.02
41334;BME280;27078;46.428;6.256;2023-11-19T02:00:24;96984.88;;;7.18;69.90
41334;BME280;27078;46.428;6.256;2023-11-19T02:02:50;96991.50;;;7.22;71.45
41334;BME280;27078;46.428;6.256;2023-11-19T02:05:17;96992.88;;;7.24;70.12
41334;BME280;27078;46.428;6.256;2023-11-19T02:07:42;96992.63;;;7.26;69.80
41334;BME280;27078;46.428;6.256;2023-11-19T02:10:08;96992.59;;;7.31;70.02
41334;BME280;27078;46.428;6.256;2023-11-19T02:12:42;96987.09;;;7.36;69.97
41334;BME280;27078;46.428;6.256;2023-11-19T02:15:09;96993.72;;;7.40;69.77
41334;BME280;27078;46.428;6.256;2023-11-19T02:17:34;96986.25;;;7.36;71.01
41334;BME280;27078;46.428;6.256;2023-11-19T02:20:03;96984.88;;;7.38;69.20
41334;BME280;27078;46.428;6.256;2023-11-19T02:22:28;96975.22;;;7.41;69.23
41334;BME280;27078;46.428;6.256;2023-11-19T02:24:59;96970.25;;;7.43;69.71
41334;BME280;27078;46.428;6.256;2023-11-19T02:30:07;96973.56;;;7.40;71.17
41334;BME280;27078;46.428;6.256;2023-11-19T02:32:34;96971.63;;;7.35;70.84
41334;BME280;27078;46.428;6.256;2023-11-19T02:35:01;96971.34;;;7.37;70.73
41334;BME280;27078;46.428;6.256;2023-11-19T02:37:26;96962.78;;;7.43;70.33
41334;BME280;27078;46.428;6.256;2023-11-19T02:39:53;96960.31;;;7.37;72.17
41334;BME280;27078;46.428;6.256;2023-11-19T02:42:18;96963.88;;;7.32;72.52
41334;BME280;27078;46.428;6.256;2023-11-19T02:44:44;96961.41;;;7.41;71.08
41334;BME280;27078;46.428;6.256;2023-11-19T02:47:11;96961.97;;;7.43;70.48
41334;BME280;27078;46.428;6.256;2023-11-19T02:49:36;96953.41;;;7.44;71.14
41334;BME280;27078;46.428;6.256;2023-11-19T02:52:02;96945.94;;;7.45;69.48
41334;BME280;27078;46.428;6.256;2023-11-19T02:54:30;96949.53;;;7.50;69.08
41334;BME280;27078;46.428;6.256;2023-11-19T02:57:00;96950.63;;;7.54;69.56
41334;BME280;27078;46.428;6.256;2023-11-19T02:59:26;96941.22;;;7.61;68.95
41334;BME280;27078;46.428;6.256;2023-11-19T03:01:53;96950.63;;;7.70;68.80
41334;BME280;27078;46.428;6.256;2023-11-19T03:04:19;96943.13;;;7.80;68.16
41334;BME280;27078;46.428;6.256;2023-11-19T03:06:45;96943.94;;;7.86;67.02
41334;BME280;27078;46.428;6.256;2023-11-19T03:09:11;96934.53;;;7.92;67.24
41334;BME280;27078;46.428;6.256;2023-11-19T03:11:37;96926.78;;;7.94;67.26
41334;BME280;27078;46.428;6.256;2023-11-19T03:14:02;96911.03;;;7.95;69.66
41334;BME280;27078;46.428;6.256;2023-11-19T03:16:31;96916.00;;;7.93;69.18
41334;BME280;27078;46.428;6.256;2023-11-19T03:18:56;96919.03;;;7.96;69.26
41334;BME280;27078;46.428;6.256;2023-11-19T03:21:31;96916.81;;;7.98;69.05
41334;BME280;27078;46.428;6.256;2023-11-19T03:23:59;96913.50;;;8.01;68.55
41334;BME280;27078;46.428;6.256;2023-11-19T03:26:28;96924.00;;;7.99;70.76
41334;BME280;27078;46.428;6.256;2023-11-19T03:28:54;96915.75;;;7.94;71.97
41334;BME280;27078;46.428;6.256;2023-11-19T03:31:19;96908.56;;;7.93;70.57
41334;BME280;27078;46.428;6.256;2023-11-19T03:33:45;96907.44;;;7.89;69.73
41334;BME280;27078;46.428;6.256;2023-11-19T03:36:11;96912.72;;;7.91;71.11
41334;BME280;27078;46.428;6.256;2023-11-19T03:38:38;96903.34;;;7.81;73.47
41334;BME280;27078;46.428;6.256;2023-11-19T03:41:11;96907.19;;;7.86;71.56
41334;BME280;27078;46.428;6.256;2023-11-19T03:43:36;96899.16;;;7.89;71.98
41334;BME280;27078;46.428;6.256;2023-11-19T03:46:02;96895.84;;;7.92;72.13
41334;BME280;27078;46.428;6.256;2023-11-19T03:48:27;96906.31;;;8.00;71.39
41334;BME280;27078;46.428;6.256;2023-11-19T03:50:52;96901.31;;;8.02;71.76
41334;BME280;27078;46.428;6.256;2023-11-19T03:53:18;96906.84;;;8.02;70.77
41334;BME280;27078;46.428;6.256;2023-11-19T03:55:44;96912.94;;;7.99;69.84
41334;BME280;27078;46.428;6.256;2023-11-19T03:58:09;96911.03;;;7.95;70.40
41334;BME280;27078;46.428;6.256;2023-11-19T04:00:34;96916.03;;;7.88;70.87
41334;BME280;27078;46.428;6.256;2023-11-19T04:03:00;96903.03;;;7.88;69.68
41334;BME280;27078;46.428;6.256;2023-11-19T04:05:25;96914.91;;;7.89;69.29
41334;BME280;27078;46.428;6.256;2023-11-19T04:07:51;96913.28;;;7.88;68.59
41334;BME280;27078;46.428;6.256;2023-11-19T04:10:16;96910.22;;;7.89;68.86
41334;BME280;27078;46.428;6.256;2023-11-19T04:12:42;96900.00;;;7.85;71.42
41334;BME280;27078;46.428;6.256;2023-11-19T04:15:08;96903.03;;;7.88;72.22
41334;BME280;27078;46.428;6.256;2023-11-19T04:17:33;96895.31;;;7.90;71.57
41334;BME280;27078;46.428;6.256;2023-11-19T04:19:59;96900.28;;;7.88;70.38
41334;BME280;27078;46.428;6.256;2023-11-19T04:22:24;96904.97;;;7.88;69.38
41334;BME280;27078;46.428;6.256;2023-11-19T04:24:49;96899.19;;;7.84;72.40
41334;BME280;27078;46.428;6.256;2023-11-19T04:27:15;96901.69;;;7.80;72.34
41334;BME280;27078;46.428;6.256;2023-11-19T04:29:40;96891.44;;;7.86;71.47
41334;BME280;27078;46.428;6.256;2023-11-19T04:32:06;96892.81;;;7.89;70.69
41334;BME280;27078;46.428;6.256;2023-11-19T04:34:31;96891.69;;;8.00;71.55
41334;BME280;27078;46.428;6.256;2023-11-19T04:36:56;96893.56;;;8.15;71.97
41334;BME280;27078;46.428;6.256;2023-11-19T04:39:22;96902.69;;;8.10;72.69
41334;BME280;27078;46.428;6.256;2023-11-19T04:41:48;96901.88;;;7.99;72.39
41334;BME280;27078;46.428;6.256;2023-11-19T04:44:15;96909.13;;;7.90;72.50
41334;BME280;27078;46.428;6.256;2023-11-19T04:46:41;96903.88;;;7.84;73.03
41334;BME280;27078;46.428;6.256;2023-11-19T04:49:08;96903.03;;;7.93;71.46
41334;BME280;27078;46.428;6.256;2023-11-19T04:51:42;96894.72;;;7.98;71.40
41334;BME280;27078;46.428;6.256;2023-11-19T04:54:10;96891.97;;;7.93;72.47
41334;BME280;27078;46.428;6.256;2023-11-19T04:56:36;96892.50;;;8.00;72.85
41334;BME280;27078;46.428;6.256;2023-11-19T04:59:05;96888.59;;;8.12;71.48
41334;BME280;27078;46.428;6.256;2023-11-19T05:01:32;96880.78;;;8.24;72.81
41334;BME280;27078;46.428;6.256;2023-11-19T05:03:58;96887.66;;;8.42;73.57
41334;BME280;27078;46.428;6.256;2023-11-19T05:06:30;96885.53;;;8.73;75.69
41334;BME280;27078;46.428;6.256;2023-11-19T05:08:58;96884.59;;;8.88;74.69
41334;BME280;27078;46.428;6.256;2023-11-19T05:11:23;96876.06;;;8.79;72.77
41334;BME280;27078;46.428;6.256;2023-11-19T05:13:49;96881.97;;;8.67;72.87
41334;BME280;27078;46.428;6.256;2023-11-19T05:16:15;96885.31;;;8.64;72.60
41334;BME280;27078;46.428;6.256;2023-11-19T05:18:41;96890.53;;;8.66;72.28
41334;BME280;27078;46.428;6.256;2023-11-19T05:21:06;96876.13;;;8.69;71.84
41334;BME280;27078;46.428;6.256;2023-11-19T05:23:32;96881.59;;;8.79;72.35
41334;BME280;27078;46.428;6.256;2023-11-19T05:25:59;96884.34;;;8.84;71.91
41334;BME280;27078;46.428;6.256;2023-11-19T05:28:25;96887.69;;;8.81;72.87
41334;BME280;27078;46.428;6.256;2023-11-19T05:30:51;96894.31;;;8.80;73.25
41334;BME280;27078;46.428;6.256;2023-11-19T05:33:16;96875.56;;;8.72;73.42
41334;BME280;27078;46.428;6.256;2023-11-19T05:35:42;96877.50;;;8.71;73.80
41334;BME280;27078;46.428;6.256;2023-11-19T05:38:07;96865.63;;;8.66;75.11
41334;BME280;27078;46.428;6.256;2023-11-19T05:40:32;96868.97;;;8.63;75.89
41334;BME280;27078;46.428;6.256;2023-11-19T05:42:58;96866.75;;;8.65;74.48
41334;BME280;27078;46.428;6.256;2023-11-19T05:45:23;96866.47;;;8.66;75.32
41334;BME280;27078;46.428;6.256;2023-11-19T05:47:48;96871.72;;;8.68;74.86
41334;BME280;27078;46.428;6.256;2023-11-19T05:50:14;96875.56;;;8.72;74.41
41334;BME280;27078;46.428;6.256;2023-11-19T05:52:39;96876.66;;;8.76;74.33
41334;BME280;27078;46.428;6.256;2023-11-19T05:55:05;96867.78;;;8.74;74.16
41334;BME280;27078;46.428;6.256;2023-11-19T05:57:35;96863.03;;;8.85;73.27
41334;BME280;27078;46.428;6.256;2023-11-19T06:00:00;96865.22;;;8.88;73.64
41334;BME280;27078;46.428;6.256;2023-11-19T06:02:25;96861.28;;;8.94;73.57
41334;BME280;27078;46.428;6.256;2023-11-19T06:04:52;96857.66;;;8.98;73.97
41334;BME280;27078;46.428;6.256;2023-11-19T06:07:18;96865.66;;;9.00;74.68
41334;BME280;27078;46.428;6.256;2023-11-19T06:09:43;96862.06;;;9.05;74.67
41334;BME280;27078;46.428;6.256;2023-11-19T06:12:09;96861.44;;;9.08;74.31
41334;BME280;27078;46.428;6.256;2023-11-19T06:14:34;96854.22;;;9.12;74.54
41334;BME280;27078;46.428;6.256;2023-11-19T06:16:59;96860.25;;;9.19;74.61
41334;BME280;27078;46.428;6.256;2023-11-19T06:19:25;96856.34;;;9.25;74.64
41334;BME280;27078;46.428;6.256;2023-11-19T06:21:50;96861.00;;;9.30;74.14
41334;BME280;27078;46.428;6.256;2023-11-19T06:24:16;96861.47;;;9.37;73.90
41334;BME280;27078;46.428;6.256;2023-11-19T06:26:41;96864.22;;;9.42;74.02
41334;BME280;27078;46.428;6.256;2023-11-19T06:29:06;96861.13;;;9.43;73.12
41334;BME280;27078;46.428;6.256;2023-11-19T06:31:32;96865.50;;;9.50;73.39
41334;BME280;27078;46.428;6.256;2023-11-19T06:33:57;96867.16;;;9.51;73.27
41334;BME280;27078;46.428;6.256;2023-11-19T06:36:22;96867.13;;;9.56;74.36
41334;BME280;27078;46.428;6.256;2023-11-19T06:38:48;96872.59;;;9.61;73.51
41334;BME280;27078;46.428;6.256;2023-11-19T06:41:13;96865.41;;;9.60;73.03
41334;BME280;27078;46.428;6.256;2023-11-19T06:43:39;96865.09;;;9.61;74.47
41334;BME280;27078;46.428;6.256;2023-11-19T06:46:04;96869.00;;;9.60;75.35
41334;BME280;27078;46.428;6.256;2023-11-19T06:48:33;96874.34;;;9.52;76.83
41334;BME280;27078;46.428;6.256;2023-11-19T06:51:00;96874.19;;;9.38;77.60
41334;BME280;27078;46.428;6.256;2023-11-19T06:53:25;96872.66;;;9.27;78.12
41334;BME280;27078;46.428;6.256;2023-11-19T06:55:53;96878.50;;;9.25;77.69
41334;BME280;27078;46.428;6.256;2023-11-19T06:58:18;96879.56;;;9.29;76.72
41334;BME280;27078;46.428;6.256;2023-11-19T07:00:44;96887.56;;;9.31;77.46
41334;BME280;27078;46.428;6.256;2023-11-19T07:03:11;96899.47;;;9.31;78.39
41334;BME280;27078;46.428;6.256;2023-11-19T07:05:36;96891.72;;;9.33;78.21
41334;BME280;27078;46.428;6.256;2023-11-19T07:08:04;96890.56;;;9.39;76.99
41334;BME280;27078;46.428;6.256;2023-11-19T07:10:29;96893.81;;;9.46;76.05
41334;BME280;27078;46.428;6.256;2023-11-19T07:12:56;96892.63;;;9.53;76.33
41334;BME280;27078;46.428;6.256;2023-11-19T07:15:21;96903.72;;;9.53;76.99
41334;BME280;27078;46.428;6.256;2023-11-19T07:17:46;96894.59;;;9.52;77.14
41334;BME280;27078;46.428;6.256;2023-11-19T07:20:13;96892.34;;;9.54;77.12
41334;BME280;27078;46.428;6.256;2023-11-19T07:22:43;96886.78;;;9.54;78.04
41334;BME280;27078;46.428;6.256;2023-11-19T07:25:12;96877.91;;;9.57;77.79
41334;BME280;27078;46.428;6.256;2023-11-19T07:27:38;96872.91;;;9.59;77.88
41334;BME280;27078;46.428;6.256;2023-11-19T07:30:04;96893.13;;;9.60;78.20
41334;BME280;27078;46.428;6.256;2023-11-19T07:32:30;96893.66;;;9.62;78.17
41334;BME280;27078;46.428;6.256;2023-11-19T07:34:55;96895.56;;;9.66;77.83
41334;BME280;27078;46.428;6.256;2023-11-19T07:37:21;96895.78;;;9.70;77.21
41334;BME280;27078;46.428;6.256;2023-11-19T07:39:47;96891.31;;;9.74;76.98
41334;BME280;27078;46.428;6.256;2023-11-19T07:42:12;96899.59;;;9.79;76.35
41334;BME280;27078;46.428;6.256;2023-11-19T07:44:38;96903.13;;;9.85;76.15
41334;BME280;27078;46.428;6.256;2023-11-19T07:47:03;96888.66;;;9.88;75.74
41334;BME280;27078;46.428;6.256;2023-11-19T07:49:29;96896.75;;;9.84;77.79
41334;BME280;27078;46.428;6.256;2023-11-19T07:51:56;96898.22;;;9.77;78.51
41334;BME280;27078;46.428;6.256;2023-11-19T07:54:21;96900.44;;;9.75;78.39
41334;BME280;27078;46.428;6.256;2023-11-19T07:56:47;96904.31;;;9.79;77.80
41334;BME280;27078;46.428;6.256;2023-11-19T07:59:12;96903.41;;;9.83;76.99
41334;BME280;27078;46.428;6.256;2023-11-19T08:01:37;96911.97;;;9.87;75.92
41334;BME280;27078;46.428;6.256;2023-11-19T08:04:03;96912.16;;;9.96;74.61
41334;BME280;27078;46.428;6.256;2023-11-19T08:06:28;96908.19;;;10.02;74.30
41334;BME280;27078;46.428;6.256;2023-11-19T08:08:53;96905.97;;;10.04;75.42
41334;BME280;27078;46.428;6.256;2023-11-19T08:11:19;96903.47;;;10.02;75.74
41334;BME280;27078;46.428;6.256;2023-11-19T08:13:47;96917.59;;;10.06;75.46
41334;BME280;27078;46.428;6.256;2023-11-19T08:16:12;96922.53;;;10.09;76.41
41334;BME280;27078;46.428;6.256;2023-11-19T08:18:40;96926.97;;;10.10;74.59
41334;BME280;27078;46.428;6.256;2023-11-19T08:21:06;96920.63;;;10.09;75.08
41334;BME280;27078;46.428;6.256;2023-11-19T08:23:31;96931.16;;;10.07;75.36
41334;BME280;27078;46.428;6.256;2023-11-19T08:25:57;96924.50;;;10.08;74.81
41334;BME280;27078;46.428;6.256;2023-11-19T08:28:22;96928.38;;;10.07;75.45
41334;BME280;27078;46.428;6.256;2023-11-19T08:30:48;96924.25;;;10.05;75.63
41334;BME280;27078;46.428;6.256;2023-11-19T08:33:13;96929.78;;;10.05;75.16
41334;BME280;27078;46.428;6.256;2023-11-19T08:35:40;96928.97;;;10.04;74.72
41334;BME280;27078;46.428;6.256;2023-11-19T08:38:05;96931.19;;;10.02;75.06
41334;BME280;27078;46.428;6.256;2023-11-19T08:40:30;96932.56;;;10.05;74.72
41334;BME280;27078;46.428;6.256;2023-11-19T08:42:56;96932.06;;;10.03;75.52
41334;BME280;27078;46.428;6.256;2023-11-19T08:45:22;96944.50;;;10.05;76.54
41334;BME280;27078;46.428;6.256;2023-11-19T08:47:47;96940.38;;;10.03;76.26
41334;BME280;27078;46.428;6.256;2023-11-19T08:50:12;96949.56;;;9.98;77.11
41334;BME280;27078;46.428;6.256;2023-11-19T08:52:38;96958.69;;;9.99;76.81
41334;BME280;27078;46.428;6.256;2023-11-19T08:55:04;96946.75;;;10.03;76.99
41334;BME280;27078;46.428;6.256;2023-11-19T08:57:31;96935.34;;;10.05;77.43
41334;BME280;27078;46.428;6.256;2023-11-19T08:59:56;96929.88;;;10.00;78.13
41334;BME280;27078;46.428;6.256;2023-11-19T09:02:22;96938.44;;;10.03;79.72
41334;BME280;27078;46.428;6.256;2023-11-19T09:04:47;96932.66;;;10.00;79.85
41334;BME280;27078;46.428;6.256;2023-11-19T09:07:12;96928.38;;;10.07;79.64
41334;BME280;27078;46.428;6.256;2023-11-19T09:09:38;96933.94;;;10.07;79.26
41334;BME280;27078;46.428;6.256;2023-11-19T09:12:03;96939.19;;;10.09;79.10
41334;BME280;27078;46.428;6.256;2023-11-19T09:14:29;96932.81;;;10.08;80.35
41334;BME280;27078;46.428;6.256;2023-11-19T09:16:56;96941.19;;;10.03;79.10
41334;BME280;27078;46.428;6.256;2023-11-19T09:19:21;96942.31;;;10.02;78.68
41334;BME280;27078;46.428;6.256;2023-11-19T09:21:46;96948.97;;;10.01;79.87
41334;BME280;27078;46.428;6.256;2023-11-19T09:24:14;96950.69;;;9.97;78.58
41334;BME280;27078;46.428;6.256;2023-11-19T09:26:40;96956.22;;;9.97;77.66
41334;BME280;27078;46.428;6.256;2023-11-19T09:29:07;96958.69;;;9.99;77.85
41334;BME280;27078;46.428;6.256;2023-11-19T09:31:33;96949.28;;;10.00;75.95
41334;BME280;27078;46.428;6.256;2023-11-19T09:33:58;96946.16;;;10.06;76.92
41334;BME280;27078;46.428;6.256;2023-11-19T09:36:24;96940.53;;;10.11;76.06
41334;BME280;27078;46.428;6.256;2023-11-19T09:38:49;96943.56;;;10.15;75.72
41334;BME280;27078;46.428;6.256;2023-11-19T09:41:15;96952.66;;;10.21;75.54
41334;BME280;27078;46.428;6.256;2023-11-19T09:43:41;96959.03;;;10.21;77.61
41334;BME280;27078;46.428;6.256;2023-11-19T09:46:09;96953.25;;;10.17;77.78
41334;BME280;27078;46.428;6.256;2023-11-19T09:48:37;96951.06;;;10.14;77.25
41334;BME280;27078;46.428;6.256;2023-11-19T09:51:04;96954.13;;;10.13;77.05
41334;BME280;27078;46.428;6.256;2023-11-19T09:53:30;96949.09;;;10.15;78.57
41334;BME280;27078;46.428;6.256;2023-11-19T09:55:57;96945.38;;;10.25;77.99
41334;BME280;27078;46.428;6.256;2023-11-19T09:58:25;96949.78;;;10.31;77.77
41334;BME280;27078;46.428;6.256;2023-11-19T10:00:51;96935.59;;;10.32;78.95
41334;BME280;27078;46.428;6.256;2023-11-19T10:03:17;96943.13;;;10.32;78.64
41334;BME280;27078;46.428;6.256;2023-11-19T10:05:43;96930.28;;;10.36;78.10
41334;BME280;27078;46.428;6.256;2023-11-19T10:08:08;96941.38;;;10.36;78.82
41334;BME280;27078;46.428;6.256;2023-11-19T10:10:34;96929.19;;;10.37;77.89
41334;BME280;27078;46.428;6.256;2023-11-19T10:13:00;96932.25;;;10.35;78.48
41334;BME280;27078;46.428;6.256;2023-11-19T10:15:25;96935.84;;;10.36;77.59
41334;BME280;27078;46.428;6.256;2023-11-19T10:17:55;96933.91;;;10.36;79.21
41334;BME280;27078;46.428;6.256;2023-11-19T10:20:20;96926.94;;;10.39;79.38
41334;BME280;27078;46.428;6.256;2023-11-19T10:22:46;96937.75;;;10.40;80.36
41334;BME280;27078;46.428;6.256;2023-11-19T10:27:50;96949.31;;;10.48;79.05
41334;BME280;27078;46.428;6.256;2023-11-19T10:30:26;96947.31;;;10.53;79.12
41334;BME280;27078;46.428;6.256;2023-11-19T10:33:10;96929.94;;;10.67;79.53
41334;BME280;27078;46.428;6.256;2023-11-19T10:35:54;96932.94;;;10.70;79.27
41334;BME280;27078;46.428;6.256;2023-11-19T10:38:21;96940.03;;;10.76;78.31
41334;BME280;27078;46.428;6.256;2023-11-19T10:40:48;96935.56;;;10.80;78.25
41334;BME280;27078;46.428;6.256;2023-11-19T10:43:13;96920.47;;;10.86;77.99
41334;BME280;27078;46.428;6.256;2023-11-19T10:45:39;96922.88;;;10.93;77.00
41334;BME280;27078;46.428;6.256;2023-11-19T10:48:06;96928.81;;;11.05;77.59
41334;BME280;27078;46.428;6.256;2023-11-19T10:50:36;96927.28;;;11.13;77.80
41334;BME280;27078;46.428;6.256;2023-11-19T10:53:03;96939.78;;;11.16;77.44
41334;BME280;27078;46.428;6.256;2023-11-19T10:55:31;96940.59;;;11.16;77.79
41334;BME280;27078;46.428;6.256;2023-11-19T10:57:59;96941.13;;;11.18;78.16
41334;BME280;27078;46.428;6.256;2023-11-19T11:00:26;96920.69;;;11.28;77.76
41334;BME280;27078;46.428;6.256;2023-11-19T11:02:56;96924.94;;;11.39;77.54
41334;BME280;27078;46.428;6.256;2023-11-19T11:05:25;96914.47;;;11.50;76.40
41334;BME280;27078;46.428;6.256;2023-11-19T11:07:52;96912.44;;;11.55;76.22
41334;BME280;27078;46.428;6.256;2023-11-19T11:10:21;96918.13;;;11.64;76.28
41334;BME280;27078;46.428;6.256;2023-11-19T11:12:55;96910.16;;;11.57;77.18
41334;BME280;27078;46.428;6.256;2023-11-19T11:15:49;96903.28;;;11.55;77.31
41334;BME280;27078;46.428;6.256;2023-11-19T11:18:36;96899.72;;;11.68;75.94
41334;BME280;27078;46.428;6.256;2023-11-19T11:21:11;96899.78;;;11.63;74.78
41334;BME280;27078;46.428;6.256;2023-11-19T11:35:16;96909.50;;;11.66;76.62
41334;BME280;27078;46.428;6.256;2023-11-19T11:37:46;96909.00;;;11.77;75.96
41334;BME280;27078;46.428;6.256;2023-11-19T11:40:16;96899.16;;;11.85;75.31
41334;BME280;27078;46.428;6.256;2023-11-19T11:42:45;96894.44;;;11.86;75.73
41334;BME280;27078;46.428;6.256;2023-11-19T11:45:12;96904.16;;;11.83;76.22
41334;BME280;27078;46.428;6.256;2023-11-19T11:50:08;96900.81;;;12.00;75.95
41334;BME280;27078;46.428;6.256;2023-11-19T11:52:33;96895.66;;;11.93;75.87
41334;BME280;27078;46.428;6.256;2023-11-19T11:55:04;96898.41;;;11.79;76.64
41334;BME280;27078;46.428;6.256;2023-11-19T11:57:36;96901.56;;;11.73;77.73
41334;BME280;27078;46.428;6.256;2023-11-19T12:00:02;96892.00;;;11.65;77.37
41334;BME280;27078;46.428;6.256;2023-11-19T12:02:30;96895.88;;;11.64;77.30
41334;BME280;27078;46.428;6.256;2023-11-19T12:04:56;96895.56;;;11.52;76.31
41334;BME280;27078;46.428;6.256;2023-11-19T12:07:23;96891.75;;;11.48;76.79
41334;BME280;27078;46.428;6.256;2023-11-19T12:09:53;96889.25;;;11.46;76.64
41334;BME280;27078;46.428;6.256;2023-11-19T12:12:21;96884.22;;;11.48;76.55
41334;BME280;27078;46.428;6.256;2023-11-19T12:20:05;96885.75;;;11.41;76.42
41334;BME280;27078;46.428;6.256;2023-11-19T12:22:35;96878.22;;;11.41;77.63
41334;BME280;27078;46.428;6.256;2023-11-19T12:25:02;96881.09;;;11.36;77.97
41334;BME280;27078;46.428;6.256;2023-11-19T12:27:27;96881.91;;;11.37;77.40
41334;BME280;27078;46.428;6.256;2023-11-19T12:29:53;96874.69;;;11.35;77.74
41334;BME280;27078;46.428;6.256;2023-11-19T12:32:19;96883.47;;;11.43;78.28
41334;BME280;27078;46.428;6.256;2023-11-19T12:34:45;96882.97;;;11.41;77.41
41334;BME280;27078;46.428;6.256;2023-11-19T12:37:10;96876.06;;;11.38;78.26
41334;BME280;27078;46.428;6.256;2023-11-19T12:39:36;96874.69;;;11.35;77.56
41334;BME280;27078;46.428;6.256;2023-11-19T12:42:01;96870.34;;;11.29;78.11
41334;BME280;27078;46.428;6.256;2023-11-19T12:44:28;96867.06;;;11.27;78.05
41334;BME280;27078;46.428;6.256;2023-11-19T12:46:59;96865.63;;;11.30;77.73
41334;BME280;27078;46.428;6.256;2023-11-19T12:49:26;96852.03;;;11.28;78.02
41334;BME280;27078;46.428;6.256;2023-11-19T12:51:51;96858.34;;;11.34;77.38
41334;BME280;27078;46.428;6.256;2023-11-19T12:54:17;96858.63;;;11.32;78.59
41334;BME280;27078;46.428;6.256;2023-11-19T12:56:53;96860.59;;;11.32;78.69
41334;BME280;27078;46.428;6.256;2023-11-19T12:59:19;96851.94;;;11.33;78.45
41334;BME280;27078;46.428;6.256;2023-11-19T13:01:54;96843.72;;;11.28;77.66
41334;BME280;27078;46.428;6.256;2023-11-19T13:04:20;96847.22;;;11.34;77.98
41334;BME280;27078;46.428;6.256;2023-11-19T13:06:46;96848.06;;;11.34;78.07
41334;BME280;27078;46.428;6.256;2023-11-19T13:09:24;96843.59;;;11.33;78.68
41334;BME280;27078;46.428;6.256;2023-11-19T13:11:49;96850.50;;;11.36;78.50
41334;BME280;27078;46.428;6.256;2023-11-19T13:14:15;96849.38;;;11.37;78.60
41334;BME280;27078;46.428;6.256;2023-11-19T13:16:40;96856.59;;;11.38;79.44
41334;BME280;27078;46.428;6.256;2023-11-19T13:19:07;96859.66;;;11.37;79.35
41334;BME280;27078;46.428;6.256;2023-11-19T13:21:34;96851.34;;;11.37;79.75
41334;BME280;27078;46.428;6.256;2023-11-19T13:23:59;96853.50;;;11.40;79.72
41334;BME280;27078;46.428;6.256;2023-11-19T13:26:24;96850.66;;;11.45;79.23
41334;BME280;27078;46.428;6.256;2023-11-19T13:28:50;96850.88;;;11.48;79.63